Time;durP1;ratioP1;P1;durP2;ratioP2;P2;SDS_P1;SDS_P2;PMS_P1;PMS_P2;Temp;Humidity;BMP_temperature;BMP_pressure;BME280_temperature;BME280_humidity;BME280_pressure;Samples;Min_cycle;Max_cycle;Signal;HPM_P1;HPM_P2
2021/12/25 00:01:23;;;;;;;15.93;11.90;;;;;;;;;;5011576;28;20692;-60
2021/12/25 00:03:49;;;;;;;17.07;11.70;;;;;;;;;;5012826;28;20208;-60
2021/12/25 00:06:14;;;;;;;15.60;10.97;;;;;;;;;;5012313;28;20747;-61
2021/12/25 00:08:39;;;;;;;16.00;11.03;;;;;;;;;;5012217;28;20220;-60
2021/12/25 00:11:07;;;;;;;14.93;10.63;;;;;;;;;;5012290;28;20577;-60
2021/12/25 00:13:32;;;;;;;14.90;10.33;;;;;;;;;;5012856;28;20212;-60
2021/12/25 00:15:58;;;;;;;14.67;10.33;;;;;;;;;;5010736;28;20204;-60
2021/12/25 00:18:23;;;;;;;13.87;9.77;;;;;;;;;;5012013;28;20256;-60
2021/12/25 00:20:49;;;;;;;13.37;9.33;;;;;;;;;;5010188;28;20205;-60
2021/12/25 00:23:14;;;;;;;14.63;10.07;;;;;;;;;;5010026;28;20578;-60
2021/12/25 00:25:48;;;;;;;14.57;9.70;;;;;;;;;;5011394;28;20228;-60
2021/12/25 00:28:46;;;;;;;13.40;9.43;;;;;;;;;;5011137;28;20224;-60
2021/12/25 00:31:23;;;;;;;14.13;9.67;;;;;;;;;;5011860;28;20598;-60
2021/12/25 00:33:56;;;;;;;11.77;8.77;;;;;;;;;;5011250;28;20581;-60
2021/12/25 00:36:22;;;;;;;12.87;9.00;;;;;;;;;;5011020;28;20551;-60
2021/12/25 00:38:47;;;;;;;10.27;7.87;;;;;;;;;;5010824;28;20235;-60
2021/12/25 00:41:13;;;;;;;11.30;8.47;;;;;;;;;;5011830;28;20216;-60
2021/12/25 00:43:38;;;;;;;10.00;8.10;;;;;;;;;;5009929;28;20335;-60
2021/12/25 00:46:03;;;;;;;11.13;8.20;;;;;;;;;;5011474;28;20228;-60
2021/12/25 00:48:29;;;;;;;12.40;9.00;;;;;;;;;;5011914;28;20209;-60
2021/12/25 00:50:54;;;;;;;12.60;9.60;;;;;;;;;;5011427;28;20220;-60
2021/12/25 00:53:19;;;;;;;13.13;9.47;;;;;;;;;;5010282;28;20219;-60
2021/12/25 00:55:45;;;;;;;13.70;10.53;;;;;;;;;;5010700;28;20212;-60
2021/12/25 00:58:10;;;;;;;13.90;10.63;;;;;;;;;;5009063;28;20224;-61
2021/12/25 01:00:35;;;;;;;15.93;12.07;;;;;;;;;;5011727;28;20208;-60
2021/12/25 01:03:01;;;;;;;15.40;12.10;;;;;;;;;;5010502;28;20231;-60
2021/12/25 01:05:26;;;;;;;15.77;12.13;;;;;;;;;;5011711;28;20668;-60
2021/12/25 01:07:51;;;;;;;17.57;12.97;;;;;;;;;;5011772;28;20304;-60
2021/12/25 01:10:18;;;;;;;17.47;13.30;;;;;;;;;;5010567;28;20634;-60
2021/12/25 01:12:56;;;;;;;15.60;12.67;;;;;;;;;;5010278;28;20703;-60
2021/12/25 01:15:29;;;;;;;21.13;15.17;;;;;;;;;;5011605;28;20219;-60
2021/12/25 01:20:42;;;;;;;21.20;15.70;;;;;;;;;;5011198;28;20208;-60
2021/12/25 01:26:10;;;;;;;19.43;15.03;;;;;;;;;;5010849;28;20215;-60
2021/12/25 01:33:51;;;;;;;23.23;16.90;;;;;;;;;;5010121;28;20543;-60
2021/12/25 01:39:05;;;;;;;24.80;18.57;;;;;;;;;;5010336;28;20654;-60
2021/12/25 01:42:07;;;;;;;24.60;18.47;;;;;;;;;;5009870;28;20208;-60
2021/12/25 01:49:34;;;;;;;26.87;19.50;;;;;;;;;;5010850;28;20602;-60
2021/12/25 01:51:59;;;;;;;25.87;18.30;;;;;;;;;;5010923;28;21052;-60
2021/12/25 01:54:24;;;;;;;27.03;19.00;;;;;;;;;;5009755;28;20212;-60
2021/12/25 01:56:49;;;;;;;24.60;17.57;;;;;;;;;;5011075;28;20212;-60
2021/12/25 01:59:15;;;;;;;27.07;19.17;;;;;;;;;;5009717;28;20219;-60
2021/12/25 02:01:40;;;;;;;28.60;19.63;;;;;;;;;;5011026;28;20653;-60
2021/12/25 02:04:06;;;;;;;25.83;19.63;;;;;;;;;;5010272;28;20227;-61
2021/12/25 02:06:31;;;;;;;27.87;19.73;;;;;;;;;;5009924;28;20302;-60
2021/12/25 02:08:56;;;;;;;26.20;19.23;;;;;;;;;;5010759;28;20217;-60
2021/12/25 02:11:21;;;;;;;26.97;19.07;;;;;;;;;;5010382;28;20560;-60
2021/12/25 02:13:47;;;;;;;27.10;19.17;;;;;;;;;;5009891;28;20223;-60
2021/12/25 02:16:16;;;;;;;28.17;19.97;;;;;;;;;;5008876;28;20212;-61
2021/12/25 02:19:02;;;;;;;29.57;20.77;;;;;;;;;;5009349;28;20851;-60
2021/12/25 02:21:35;;;;;;;30.93;20.30;;;;;;;;;;5009566;28;20211;-60
2021/12/25 02:24:00;;;;;;;29.87;20.33;;;;;;;;;;5010435;28;20269;-64
2021/12/25 02:26:26;;;;;;;34.67;21.83;;;;;;;;;;5010716;28;20215;-60
2021/12/25 02:28:51;;;;;;;28.90;20.37;;;;;;;;;;5009700;28;20643;-60
2021/12/25 02:31:17;;;;;;;31.27;21.60;;;;;;;;;;5008833;28;20247;-60
2021/12/25 02:33:42;;;;;;;31.10;20.83;;;;;;;;;;5010340;28;20222;-60
2021/12/25 02:36:08;;;;;;;32.77;21.13;;;;;;;;;;5009264;28;20239;-61
2021/12/25 02:38:33;;;;;;;32.20;21.13;;;;;;;;;;5010357;28;20758;-60
2021/12/25 02:40:59;;;;;;;32.87;21.57;;;;;;;;;;5009181;28;20692;-60
2021/12/25 02:43:24;;;;;;;33.60;21.93;;;;;;;;;;5007920;28;20673;-60
2021/12/25 02:45:50;;;;;;;32.67;21.37;;;;;;;;;;5012395;28;20217;-60
2021/12/25 02:48:17;;;;;;;31.07;21.40;;;;;;;;;;5012414;28;20680;-60
2021/12/25 02:50:42;;;;;;;34.30;21.77;;;;;;;;;;5013465;28;20292;-60
2021/12/25 02:53:08;;;;;;;32.47;21.70;;;;;;;;;;5013888;28;20300;-60
2021/12/25 02:55:33;;;;;;;33.53;20.47;;;;;;;;;;5013603;28;20213;-60
2021/12/25 02:57:58;;;;;;;33.83;21.97;;;;;;;;;;5012728;28;20251;-60
2021/12/25 03:00:28;;;;;;;33.67;21.67;;;;;;;;;;5013649;28;20216;-60
2021/12/25 03:02:54;;;;;;;34.60;21.20;;;;;;;;;;5013242;28;20334;-60
2021/12/25 03:05:19;;;;;;;30.97;19.37;;;;;;;;;;5013355;28;20684;-60
2021/12/25 03:07:45;;;;;;;29.47;19.23;;;;;;;;;;5014054;28;20217;-60
2021/12/25 03:10:11;;;;;;;29.43;18.87;;;;;;;;;;5012790;28;20243;-60
2021/12/25 03:12:47;;;;;;;31.80;18.83;;;;;;;;;;5013992;28;20607;-60
2021/12/25 03:15:16;;;;;;;30.50;18.47;;;;;;;;;;5013417;28;20212;-60
2021/12/25 03:17:41;;;;;;;30.83;18.50;;;;;;;;;;5013053;28;20445;-60
2021/12/25 03:20:07;;;;;;;30.47;19.07;;;;;;;;;;5013364;28;20424;-60
2021/12/25 03:22:33;;;;;;;29.47;18.97;;;;;;;;;;5013633;28;20219;-60
2021/12/25 03:24:58;;;;;;;31.20;17.73;;;;;;;;;;5012860;28;20212;-60
2021/12/25 03:27:23;;;;;;;28.73;16.70;;;;;;;;;;5013465;28;20279;-60
2021/12/25 03:29:49;;;;;;;31.13;18.17;;;;;;;;;;5013590;28;20243;-60
2021/12/25 03:32:14;;;;;;;24.67;16.57;;;;;;;;;;5012235;28;20239;-60
2021/12/25 03:34:39;;;;;;;25.77;15.90;;;;;;;;;;5012220;28;20735;-60
2021/12/25 03:37:04;;;;;;;27.67;16.50;;;;;;;;;;5012829;28;20220;-60
2021/12/25 03:39:30;;;;;;;24.83;15.80;;;;;;;;;;5012557;28;20208;-60
2021/12/25 03:41:57;;;;;;;23.37;14.50;;;;;;;;;;5013429;28;20299;-60
2021/12/25 03:44:23;;;;;;;23.00;14.63;;;;;;;;;;5012774;28;20631;-60
2021/12/25 03:46:48;;;;;;;20.83;13.63;;;;;;;;;;5012090;28;20319;-58
2021/12/25 03:49:26;;;;;;;22.23;13.33;;;;;;;;;;5012767;28;20204;-60
2021/12/25 03:57:39;;;;;;;18.67;12.03;;;;;;;;;;5012402;28;20227;-60
2021/12/25 04:00:06;;;;;;;19.83;12.40;;;;;;;;;;5010725;28;20224;-60
2021/12/25 04:02:35;;;;;;;18.33;11.10;;;;;;;;;;5013088;28;20298;-59
2021/12/25 04:05:03;;;;;;;17.33;11.00;;;;;;;;;;5011143;28;20287;-60
2021/12/25 04:07:54;;;;;;;18.07;11.00;;;;;;;;;;5011769;28;20212;-59
2021/12/25 04:10:13;;;;;;;15.37;10.37;;;;;;;;;;5012186;28;20216;-60
2021/12/25 04:12:39;;;;;;;16.43;10.13;;;;;;;;;;5012814;28;20211;-59
2021/12/25 04:15:04;;;;;;;17.90;10.77;;;;;;;;;;5011521;28;20224;-60
2021/12/25 04:17:29;;;;;;;16.90;9.97;;;;;;;;;;5012510;28;20223;-60
2021/12/25 04:19:55;;;;;;;15.57;9.60;;;;;;;;;;5011622;28;20241;-60
2021/12/25 04:22:27;;;;;;;18.33;9.70;;;;;;;;;;5012014;28;20217;-59
2021/12/25 04:24:53;;;;;;;13.87;8.90;;;;;;;;;;5012421;28;20299;-60
2021/12/25 04:27:18;;;;;;;13.57;9.10;;;;;;;;;;5010106;28;20700;-60
2021/12/25 04:30:00;;;;;;;14.37;8.33;;;;;;;;;;5012478;28;20216;-59
2021/12/25 04:32:53;;;;;;;13.40;7.83;;;;;;;;;;5012056;28;20233;-60
2021/12/25 04:49:42;;;;;;;9.93;5.20;;;;;;;;;;5010046;28;20223;-59
2021/12/25 05:03:00;;;;;;;7.00;3.80;;;;;;;;;;5009840;28;20219;-59
2021/12/25 05:05:25;;;;;;;8.43;3.40;;;;;;;;;;5011370;28;20705;-60
2021/12/25 05:07:51;;;;;;;6.60;3.20;;;;;;;;;;5010963;28;20228;-59
2021/12/25 05:10:16;;;;;;;6.40;3.20;;;;;;;;;;5009158;28;20208;-60
2021/12/25 05:12:41;;;;;;;5.43;2.80;;;;;;;;;;5011998;28;20559;-60
2021/12/25 05:15:07;;;;;;;6.03;2.53;;;;;;;;;;5009882;28;20672;-60
2021/12/25 05:17:32;;;;;;;6.10;2.70;;;;;;;;;;5011135;28;20223;-60
2021/12/25 05:19:59;;;;;;;6.10;2.33;;;;;;;;;;5010026;28;20611;-59
2021/12/25 05:22:24;;;;;;;5.67;2.70;;;;;;;;;;5011087;28;20214;-59
2021/12/25 05:24:51;;;;;;;4.60;2.43;;;;;;;;;;5010633;28;20217;-59
2021/12/25 05:27:16;;;;;;;6.10;2.30;;;;;;;;;;5009752;28;20200;-60
2021/12/25 05:29:46;;;;;;;4.83;2.47;;;;;;;;;;5011699;28;20208;-59
2021/12/25 05:32:11;;;;;;;4.30;2.20;;;;;;;;;;5010181;28;20204;-60
2021/12/25 05:34:37;;;;;;;5.03;2.20;;;;;;;;;;5011154;28;20292;-59
2021/12/25 05:37:03;;;;;;;6.13;1.93;;;;;;;;;;5010874;28;20215;-59
2021/12/25 05:39:28;;;;;;;5.60;2.20;;;;;;;;;;5010416;28;20284;-59
2021/12/25 05:41:54;;;;;;;4.30;2.07;;;;;;;;;;5011130;28;20768;-59
2021/12/25 05:44:19;;;;;;;5.77;2.60;;;;;;;;;;5010076;28;20219;-59
2021/12/25 05:46:45;;;;;;;4.20;2.60;;;;;;;;;;5010697;28;20301;-59
2021/12/25 05:49:10;;;;;;;6.37;3.30;;;;;;;;;;5010473;28;20219;-60
2021/12/25 05:51:35;;;;;;;6.80;3.23;;;;;;;;;;5010121;28;20232;-60
2021/12/25 05:54:01;;;;;;;6.73;3.20;;;;;;;;;;5010634;28;20220;-61
2021/12/25 05:56:26;;;;;;;5.53;3.23;;;;;;;;;;5010810;28;20750;-60
2021/12/25 05:58:51;;;;;;;5.97;3.30;;;;;;;;;;5010045;28;20256;-60
2021/12/25 06:01:16;;;;;;;6.70;3.53;;;;;;;;;;5010636;28;20216;-60
2021/12/25 06:03:42;;;;;;;6.57;3.40;;;;;;;;;;5011081;28;20208;-60
2021/12/25 06:06:07;;;;;;;5.53;3.10;;;;;;;;;;5007932;28;20638;-60
2021/12/25 06:08:33;;;;;;;5.27;3.20;;;;;;;;;;5010809;28;20722;-60
2021/12/25 06:10:59;;;;;;;4.63;3.10;;;;;;;;;;5009390;28;20212;-60
2021/12/25 06:13:24;;;;;;;4.97;3.00;;;;;;;;;;5009541;28;20208;-59
2021/12/25 06:15:49;;;;;;;8.53;3.30;;;;;;;;;;5010575;28;20258;-59
2021/12/25 06:18:15;;;;;;;7.10;3.70;;;;;;;;;;5008827;28;20228;-59
2021/12/25 06:20:40;;;;;;;6.30;3.50;;;;;;;;;;5009644;28;20258;-59
2021/12/25 06:23:05;;;;;;;5.27;3.40;;;;;;;;;;5008798;28;20566;-61
2021/12/25 06:25:31;;;;;;;5.57;3.40;;;;;;;;;;5010505;28;20755;-60
2021/12/25 06:27:56;;;;;;;6.97;4.03;;;;;;;;;;5009868;28;20220;-59
2021/12/25 06:30:22;;;;;;;7.50;3.70;;;;;;;;;;5010212;28;20571;-60
2021/12/25 06:32:47;;;;;;;5.90;3.83;;;;;;;;;;5010491;28;20217;-59
2021/12/25 06:35:12;;;;;;;5.47;3.60;;;;;;;;;;5009159;28;20219;-59
2021/12/25 06:37:40;;;;;;;5.57;3.20;;;;;;;;;;5008873;28;20220;-59
2021/12/25 06:40:06;;;;;;;5.57;3.13;;;;;;;;;;5008743;28;20209;-60
2021/12/25 06:42:31;;;;;;;7.37;3.63;;;;;;;;;;5009614;28;20216;-59
2021/12/25 06:44:56;;;;;;;5.20;3.63;;;;;;;;;;5009027;28;20224;-59
2021/12/25 06:47:21;;;;;;;6.60;3.43;;;;;;;;;;5009501;28;20224;-60
2021/12/25 06:49:47;;;;;;;7.40;3.43;;;;;;;;;;5008096;28;20271;-59
2021/12/25 06:52:12;;;;;;;5.10;3.30;;;;;;;;;;5004895;28;20238;-60
2021/12/25 06:54:37;;;;;;;4.80;3.27;;;;;;;;;;5009891;28;20212;-59
2021/12/25 06:57:03;;;;;;;5.87;3.20;;;;;;;;;;5008027;28;20649;-60
2021/12/25 06:59:30;;;;;;;10.13;3.80;;;;;;;;;;5010332;28;20664;-60
2021/12/25 07:01:55;;;;;;;5.00;3.47;;;;;;;;;;5009476;28;20212;-59
2021/12/25 07:04:20;;;;;;;5.97;3.10;;;;;;;;;;5009693;28;20726;-59
2021/12/25 07:06:46;;;;;;;5.03;3.47;;;;;;;;;;5008523;28;20224;-59
2021/12/25 07:09:11;;;;;;;4.97;3.20;;;;;;;;;;5008861;28;20213;-59
2021/12/25 07:11:37;;;;;;;6.27;3.57;;;;;;;;;;5009925;28;20308;-59
2021/12/25 07:14:03;;;;;;;5.70;3.10;;;;;;;;;;5009865;28;20675;-59
2021/12/25 07:16:28;;;;;;;6.17;3.53;;;;;;;;;;5008010;28;20624;-60
2021/12/25 07:18:53;;;;;;;8.00;3.60;;;;;;;;;;5010005;28;20744;-59
2021/12/25 07:21:19;;;;;;;5.67;3.40;;;;;;;;;;5009256;28;20216;-59
2021/12/25 07:23:44;;;;;;;7.80;3.73;;;;;;;;;;5009418;28;20296;-59
2021/12/25 07:26:09;;;;;;;5.57;3.70;;;;;;;;;;5009241;28;20213;-59
2021/12/25 07:28:35;;;;;;;6.37;4.07;;;;;;;;;;5008577;28;20307;-59
2021/12/25 07:31:00;;;;;;;9.83;4.43;;;;;;;;;;5010141;28;20219;-62
2021/12/25 07:33:26;;;;;;;5.70;4.10;;;;;;;;;;5011644;28;20584;-61
2021/12/25 07:35:51;;;;;;;6.83;4.10;;;;;;;;;;5013297;28;20219;-61
2021/12/25 07:38:18;;;;;;;5.35;3.63;;;;;;;;;;5011870;28;20081;-62
2021/12/25 07:40:44;;;;;;;6.20;4.10;;;;;;;;;;5013434;28;20212;-62
2021/12/25 07:43:09;;;;;;;8.03;4.40;;;;;;;;;;5011271;28;20220;-60
2021/12/25 07:45:34;;;;;;;7.53;4.20;;;;;;;;;;5012491;28;20215;-58
2021/12/25 07:48:02;;;;;;;8.50;4.20;;;;;;;;;;5009642;28;20735;-59
2021/12/25 07:50:28;;;;;;;7.00;4.37;;;;;;;;;;5012915;28;20565;-60
2021/12/25 07:52:54;;;;;;;7.47;4.10;;;;;;;;;;5010758;28;20323;-59
2021/12/25 07:55:19;;;;;;;6.63;4.10;;;;;;;;;;5012694;28;20298;-59
2021/12/25 07:57:45;;;;;;;6.67;3.97;;;;;;;;;;5012816;28;20231;-59
2021/12/25 08:00:11;;;;;;;5.23;3.97;;;;;;;;;;5011839;28;20247;-60
2021/12/25 08:02:36;;;;;;;6.47;3.70;;;;;;;;;;5011505;28;20209;-59
2021/12/25 08:05:01;;;;;;;6.43;4.17;;;;;;;;;;5010452;28;20267;-59
2021/12/25 08:07:26;;;;;;;6.67;3.30;;;;;;;;;;5012526;28;20228;-59
2021/12/25 08:09:57;;;;;;;4.77;2.73;;;;;;;;;;5012966;28;20212;-59
2021/12/25 08:12:22;;;;;;;6.93;2.87;;;;;;;;;;5011501;28;20220;-59
2021/12/25 08:14:47;;;;;;;3.90;2.50;;;;;;;;;;5012802;28;20587;-59
2021/12/25 08:17:12;;;;;;;4.47;2.77;;;;;;;;;;5012234;28;20232;-59
2021/12/25 08:19:38;;;;;;;4.63;2.47;;;;;;;;;;5012009;28;20653;-59
2021/12/25 08:22:03;;;;;;;4.37;2.70;;;;;;;;;;5011444;28;20427;-59
2021/12/25 08:24:28;;;;;;;4.20;2.50;;;;;;;;;;5010797;28;20661;-59
2021/12/25 08:26:57;;;;;;;3.63;2.17;;;;;;;;;;5011737;28;20216;-60
2021/12/25 08:29:23;;;;;;;3.30;2.40;;;;;;;;;;5010576;28;20574;-62
2021/12/25 08:31:48;;;;;;;3.67;2.00;;;;;;;;;;5011053;28;20216;-62
2021/12/25 08:34:13;;;;;;;4.53;2.20;;;;;;;;;;5009941;28;20582;-64
2021/12/25 08:36:39;;;;;;;4.90;2.20;;;;;;;;;;5012417;28;20270;-59
2021/12/25 08:39:04;;;;;;;4.47;2.10;;;;;;;;;;5011659;28;20306;-59
2021/12/25 08:41:31;;;;;;;4.67;2.10;;;;;;;;;;5011559;28;20567;-59
2021/12/25 08:44:04;;;;;;;5.33;1.97;;;;;;;;;;5010893;28;20308;-60
2021/12/25 08:46:54;;;;;;;5.43;2.37;;;;;;;;;;5010525;28;20219;-59
2021/12/25 08:49:20;;;;;;;4.67;1.87;;;;;;;;;;5010909;28;20836;-59
2021/12/25 08:51:46;;;;;;;4.10;1.73;;;;;;;;;;5010269;28;20223;-59
2021/12/25 08:54:11;;;;;;;3.13;1.60;;;;;;;;;;5009948;28;20223;-59
2021/12/25 08:56:36;;;;;;;4.33;1.50;;;;;;;;;;5011848;28;20205;-58
2021/12/25 08:59:02;;;;;;;2.83;1.50;;;;;;;;;;5009857;28;20229;-59
2021/12/25 09:01:27;;;;;;;3.80;1.30;;;;;;;;;;5011236;28;20300;-59
2021/12/25 09:03:55;;;;;;;4.67;1.50;;;;;;;;;;5010477;28;20217;-58
2021/12/25 09:06:20;;;;;;;2.57;1.20;;;;;;;;;;5011414;28;20212;-58
2021/12/25 09:08:45;;;;;;;2.93;1.37;;;;;;;;;;5009451;28;20266;-59
2021/12/25 09:11:11;;;;;;;2.70;1.20;;;;;;;;;;5011387;28;20586;-58
2021/12/25 09:13:37;;;;;;;3.50;1.20;;;;;;;;;;5011442;28;20274;-60
2021/12/25 09:16:03;;;;;;;3.13;0.90;;;;;;;;;;5004662;28;20282;-60
2021/12/25 09:18:28;;;;;;;4.40;1.10;;;;;;;;;;4998638;28;20699;-59
2021/12/25 09:20:53;;;;;;;1.77;0.97;;;;;;;;;;4992102;28;20213;-58
2021/12/25 09:23:18;;;;;;;2.60;0.87;;;;;;;;;;5009623;28;20258;-59
2021/12/25 09:25:44;;;;;;;3.23;0.90;;;;;;;;;;5011519;28;20209;-57
2021/12/25 09:28:09;;;;;;;3.03;0.83;;;;;;;;;;5014600;28;20219;-58
2021/12/25 09:30:36;;;;;;;2.30;0.80;;;;;;;;;;5030674;28;20261;-58
2021/12/25 09:33:02;;;;;;;1.83;0.70;;;;;;;;;;4996679;28;20205;-60
2021/12/25 09:35:27;;;;;;;2.20;0.90;;;;;;;;;;4990301;28;20213;-59
2021/12/25 09:37:52;;;;;;;1.90;0.90;;;;;;;;;;4990873;28;20252;-60
2021/12/25 09:40:18;;;;;;;1.70;0.80;;;;;;;;;;4991112;28;20228;-59
2021/12/25 09:42:44;;;;;;;2.47;0.90;;;;;;;;;;5006292;28;20211;-59
2021/12/25 09:45:10;;;;;;;1.90;0.80;;;;;;;;;;5009629;28;20535;-60
2021/12/25 09:47:35;;;;;;;3.47;0.80;;;;;;;;;;5009286;28;20981;-59
2021/12/25 09:50:00;;;;;;;1.97;0.90;;;;;;;;;;5010517;28;20240;-61
2021/12/25 09:52:26;;;;;;;1.27;0.80;;;;;;;;;;5010969;28;20208;-59
2021/12/25 09:54:51;;;;;;;2.30;0.90;;;;;;;;;;5029032;28;20208;-59
2021/12/25 09:57:16;;;;;;;2.10;0.90;;;;;;;;;;5028667;28;20230;-59
2021/12/25 09:59:42;;;;;;;2.30;0.87;;;;;;;;;;5029694;28;20577;-59
2021/12/25 10:02:13;;;;;;;2.30;0.90;;;;;;;;;;5029807;28;20212;-60
2021/12/25 10:04:40;;;;;;;2.57;0.97;;;;;;;;;;5028617;28;20211;-59
2021/12/25 10:07:12;;;;;;;2.93;1.00;;;;;;;;;;5014581;28;20626;-60
2021/12/25 10:09:37;;;;;;;1.43;0.73;;;;;;;;;;5012167;28;20208;-59
2021/12/25 10:12:08;;;;;;;1.40;0.73;;;;;;;;;;5029271;28;20329;-60
2021/12/25 10:14:34;;;;;;;2.53;0.80;;;;;;;;;;5014832;28;20200;-60
2021/12/25 10:17:13;;;;;;;2.83;1.00;;;;;;;;;;5018824;28;20207;-60
2021/12/25 10:19:39;;;;;;;0.93;0.63;;;;;;;;;;5022507;28;20199;-60
2021/12/25 10:22:05;;;;;;;0.77;0.50;;;;;;;;;;5021017;28;20230;-60
2021/12/25 10:24:37;;;;;;;2.23;0.70;;;;;;;;;;5022830;28;20269;-60
2021/12/25 10:27:09;;;;;;;1.70;0.70;;;;;;;;;;5023187;28;20211;-60
2021/12/25 10:29:34;;;;;;;2.00;0.93;;;;;;;;;;5023302;28;20216;-60
2021/12/25 10:32:01;;;;;;;3.20;0.90;;;;;;;;;;5018575;28;20282;-60
2021/12/25 10:34:27;;;;;;;2.33;0.90;;;;;;;;;;5009514;28;20213;-60
2021/12/25 10:36:53;;;;;;;2.63;1.60;;;;;;;;;;5030157;28;20299;-60
2021/12/25 10:39:19;;;;;;;4.03;1.53;;;;;;;;;;5029647;28;20242;-60
2021/12/25 10:42:02;;;;;;;2.27;1.10;;;;;;;;;;5029302;28;20223;-59
2021/12/25 10:44:29;;;;;;;3.27;1.17;;;;;;;;;;5029988;28;20278;-60
2021/12/25 10:46:55;;;;;;;2.93;0.90;;;;;;;;;;5017845;28;20278;-59
2021/12/25 10:49:21;;;;;;;2.70;0.80;;;;;;;;;;5009906;28;20215;-60
2021/12/25 10:51:46;;;;;;;4.17;0.90;;;;;;;;;;5009053;28;20223;-60
2021/12/25 10:54:14;;;;;;;2.00;0.70;;;;;;;;;;5009125;28;20220;-60
2021/12/25 10:56:40;;;;;;;1.60;0.63;;;;;;;;;;5009056;28;20208;-60
2021/12/25 10:59:07;;;;;;;1.63;0.70;;;;;;;;;;5009645;28;20239;-60
2021/12/25 11:01:37;;;;;;;3.10;0.77;;;;;;;;;;5009217;28;20855;-59
2021/12/25 11:04:02;;;;;;;5.80;2.00;;;;;;;;;;5009632;28;20220;-60
2021/12/25 11:06:27;;;;;;;2.40;0.87;;;;;;;;;;5011900;28;20216;-60
2021/12/25 11:08:53;;;;;;;7.87;3.10;;;;;;;;;;5013236;28;20707;-60
2021/12/25 11:11:19;;;;;;;3.53;0.90;;;;;;;;;;5012103;28;20213;-60
2021/12/25 11:13:51;;;;;;;2.17;1.00;;;;;;;;;;5014007;28;20251;-60
2021/12/25 11:16:27;;;;;;;3.30;0.87;;;;;;;;;;5012363;28;20216;-60
2021/12/25 11:19:03;;;;;;;2.20;0.80;;;;;;;;;;5013628;28;20240;-60
2021/12/25 11:21:30;;;;;;;2.80;0.73;;;;;;;;;;5013427;28;20212;-59
2021/12/25 11:24:05;;;;;;;1.90;0.87;;;;;;;;;;5011867;28;20216;-59
2021/12/25 11:26:31;;;;;;;2.43;0.80;;;;;;;;;;5011935;28;20684;-60
2021/12/25 11:28:56;;;;;;;2.03;1.07;;;;;;;;;;5011682;28;20222;-60
2021/12/25 11:31:21;;;;;;;2.50;0.97;;;;;;;;;;5011273;28;20224;-60
2021/12/25 11:33:47;;;;;;;1.80;1.20;;;;;;;;;;5013519;28;20220;-60
2021/12/25 11:36:12;;;;;;;2.33;1.20;;;;;;;;;;5011176;28;20224;-60
2021/12/25 11:38:37;;;;;;;4.10;2.67;;;;;;;;;;5013412;28;20227;-60
2021/12/25 11:41:03;;;;;;;6.10;2.77;;;;;;;;;;5012891;28;20228;-60
2021/12/25 11:43:33;;;;;;;4.60;2.20;;;;;;;;;;5012323;28;20303;-59
2021/12/25 11:45:58;;;;;;;2.10;0.83;;;;;;;;;;5011529;28;20244;-60
2021/12/25 11:48:23;;;;;;;3.63;1.13;;;;;;;;;;5012651;28;20243;-59
2021/12/25 11:50:49;;;;;;;3.20;0.90;;;;;;;;;;5012489;28;20212;-59
2021/12/25 11:53:24;;;;;;;3.53;1.00;;;;;;;;;;5012706;28;20311;-60
2021/12/25 11:56:18;;;;;;;2.10;0.90;;;;;;;;;;5013271;28;20212;-59
2021/12/25 11:58:45;;;;;;;2.77;0.70;;;;;;;;;;5011881;28;20278;-59
2021/12/25 12:01:18;;;;;;;1.33;0.60;;;;;;;;;;5012233;28;20216;-60
2021/12/25 12:03:44;;;;;;;6.27;2.13;;;;;;;;;;5011641;28;20208;-59
2021/12/25 12:06:10;;;;;;;10.80;3.93;;;;;;;;;;5011713;28;20212;-58
2021/12/25 12:08:54;;;;;;;15.60;4.77;;;;;;;;;;5011161;28;20615;-59
2021/12/25 12:11:20;;;;;;;9.50;3.70;;;;;;;;;;5011605;28;20228;-60
2021/12/25 12:13:46;;;;;;;3.33;1.40;;;;;;;;;;5012606;28;20287;-60
2021/12/25 12:16:11;;;;;;;2.80;1.20;;;;;;;;;;5012222;28;20293;-59
2021/12/25 12:18:37;;;;;;;2.13;1.10;;;;;;;;;;5011738;28;20212;-61
2021/12/25 12:21:08;;;;;;;2.37;0.87;;;;;;;;;;5012168;28;20208;-60
2021/12/25 12:26:10;;;;;;;2.58;0.80;;;;;;;;;;5010913;28;20539;-60
2021/12/25 12:28:42;;;;;;;2.38;0.82;;;;;;;;;;5011500;28;20542;-60
2021/12/25 12:31:07;;;;;;;1.87;0.93;;;;;;;;;;5010739;28;20427;-60
2021/12/25 12:33:33;;;;;;;2.10;0.70;;;;;;;;;;5011521;28;20299;-58
2021/12/25 12:35:58;;;;;;;2.13;0.70;;;;;;;;;;5012407;28;20213;-59
2021/12/25 12:38:27;;;;;;;2.20;1.00;;;;;;;;;;5010616;28;20216;-59
2021/12/25 12:41:09;;;;;;;1.83;0.90;;;;;;;;;;5011635;28;20262;-60
2021/12/25 12:43:55;;;;;;;2.83;0.80;;;;;;;;;;5011731;28;20208;-61
2021/12/25 12:46:20;;;;;;;2.37;0.80;;;;;;;;;;5009107;28;20299;-60
2021/12/25 12:49:02;;;;;;;2.23;0.87;;;;;;;;;;5010697;28;20320;-60
2021/12/25 12:51:27;;;;;;;1.50;0.87;;;;;;;;;;5011618;28;20676;-59
2021/12/25 12:53:52;;;;;;;1.90;0.90;;;;;;;;;;5011265;28;20271;-60
2021/12/25 12:56:21;;;;;;;1.93;0.80;;;;;;;;;;5011535;28;20296;-60
2021/12/25 12:58:50;;;;;;;1.03;0.70;;;;;;;;;;5010547;28;20303;-60
2021/12/25 13:01:16;;;;;;;3.07;1.20;;;;;;;;;;5007347;28;20205;-60
2021/12/25 13:03:41;;;;;;;2.73;0.80;;;;;;;;;;4994814;28;20220;-59
2021/12/25 13:06:12;;;;;;;3.20;0.90;;;;;;;;;;4997587;28;20636;-60
2021/12/25 13:08:39;;;;;;;1.80;0.87;;;;;;;;;;4980277;28;20216;-60
2021/12/25 13:11:13;;;;;;;2.30;0.90;;;;;;;;;;5001094;28;20267;-60
2021/12/25 13:13:46;;;;;;;2.30;0.90;;;;;;;;;;5006205;28;20333;-60
2021/12/25 13:16:13;;;;;;;2.43;0.97;;;;;;;;;;5000445;28;21114;-60
2021/12/25 13:18:40;;;;;;;1.97;0.80;;;;;;;;;;5006098;28;20231;-60
2021/12/25 13:21:07;;;;;;;2.70;0.90;;;;;;;;;;5019978;28;20220;-60
2021/12/25 13:23:34;;;;;;;2.20;1.00;;;;;;;;;;5005270;28;20212;-59
2021/12/25 13:26:00;;;;;;;3.07;0.90;;;;;;;;;;5002637;28;20235;-59
2021/12/25 13:28:27;;;;;;;2.73;1.00;;;;;;;;;;4995882;28;20212;-60
2021/12/25 13:30:53;;;;;;;2.30;0.97;;;;;;;;;;4992290;28;20659;-59
2021/12/25 13:33:20;;;;;;;2.50;1.00;;;;;;;;;;5000675;28;20778;-60
2021/12/25 13:35:45;;;;;;;2.57;0.80;;;;;;;;;;5003586;28;20693;-59
2021/12/25 13:38:11;;;;;;;2.70;0.90;;;;;;;;;;5005267;28;20228;-59
2021/12/25 13:40:38;;;;;;;3.20;0.90;;;;;;;;;;5005499;28;20217;-59
2021/12/25 13:43:04;;;;;;;2.00;1.00;;;;;;;;;;5003076;28;20228;-59
2021/12/25 13:45:29;;;;;;;2.43;0.83;;;;;;;;;;5000905;28;20224;-59
2021/12/25 13:47:56;;;;;;;3.13;1.10;;;;;;;;;;4999902;28;20799;-59
2021/12/25 13:50:21;;;;;;;3.00;1.00;;;;;;;;;;4996696;28;20251;-59
2021/12/25 13:52:50;;;;;;;2.70;1.00;;;;;;;;;;4995827;28;20212;-59
2021/12/25 13:55:18;;;;;;;3.37;1.30;;;;;;;;;;4997919;28;20307;-59
2021/12/25 13:57:44;;;;;;;2.17;1.00;;;;;;;;;;5003173;28;20634;-59
2021/12/25 14:00:12;;;;;;;1.87;0.80;;;;;;;;;;5004717;28;20219;-60
2021/12/25 14:02:38;;;;;;;4.40;1.07;;;;;;;;;;5003766;28;20642;-59
2021/12/25 14:05:04;;;;;;;3.40;1.00;;;;;;;;;;5002358;28;20303;-60
2021/12/25 14:07:30;;;;;;;2.13;0.90;;;;;;;;;;5005180;28;20212;-59
2021/12/25 14:09:57;;;;;;;2.63;0.90;;;;;;;;;;5005128;28;20539;-59
2021/12/25 14:12:22;;;;;;;2.27;0.90;;;;;;;;;;4996562;28;20216;-59
2021/12/25 14:14:47;;;;;;;2.03;1.00;;;;;;;;;;4995481;28;20746;-59
2021/12/25 14:17:13;;;;;;;2.43;0.90;;;;;;;;;;4995239;28;20900;-59
2021/12/25 14:19:39;;;;;;;3.07;0.90;;;;;;;;;;5001811;28;20232;-59
2021/12/25 14:22:05;;;;;;;3.60;1.13;;;;;;;;;;5002099;28;20227;-59
2021/12/25 14:24:41;;;;;;;2.30;0.90;;;;;;;;;;5004692;28;20287;-59
2021/12/25 14:27:07;;;;;;;3.30;1.30;;;;;;;;;;5003640;28;20228;-59
2021/12/25 14:29:33;;;;;;;2.73;1.00;;;;;;;;;;5003537;28;20208;-59
2021/12/25 14:31:58;;;;;;;2.03;1.10;;;;;;;;;;5003396;28;20220;-59
2021/12/25 14:34:28;;;;;;;2.53;1.00;;;;;;;;;;4999543;28;20208;-59
2021/12/25 14:36:54;;;;;;;1.90;0.93;;;;;;;;;;4995239;28;20716;-59
2021/12/25 14:39:19;;;;;;;2.70;1.40;;;;;;;;;;4994507;28;20283;-59
2021/12/25 14:41:44;;;;;;;5.23;2.17;;;;;;;;;;5004669;28;20585;-59
2021/12/25 14:44:14;;;;;;;3.70;1.10;;;;;;;;;;5007352;28;20340;-59
2021/12/25 14:46:39;;;;;;;3.60;1.30;;;;;;;;;;5006829;28;20231;-59
2021/12/25 14:49:05;;;;;;;3.43;1.27;;;;;;;;;;5008565;28;20215;-59
2021/12/25 14:51:33;;;;;;;3.47;1.30;;;;;;;;;;5008953;28;20216;-59
2021/12/25 14:53:59;;;;;;;5.17;1.30;;;;;;;;;;5006418;28;20634;-59
2021/12/25 14:56:30;;;;;;;2.57;1.17;;;;;;;;;;5003869;28;20223;-59
2021/12/25 14:58:57;;;;;;;3.50;1.50;;;;;;;;;;5000391;28;20238;-59
2021/12/25 15:01:24;;;;;;;2.30;1.00;;;;;;;;;;4999191;28;20223;-59
2021/12/25 15:03:59;;;;;;;2.47;1.00;;;;;;;;;;5003226;28;20295;-59
2021/12/25 15:06:25;;;;;;;3.80;1.13;;;;;;;;;;5007968;28;20208;-59
2021/12/25 15:09:05;;;;;;;2.97;1.10;;;;;;;;;;5007935;28;20246;-58
2021/12/25 15:11:31;;;;;;;2.67;1.13;;;;;;;;;;5008173;28;20262;-59
2021/12/25 15:13:59;;;;;;;3.50;1.30;;;;;;;;;;5006776;28;20221;-59
2021/12/25 15:16:35;;;;;;;3.07;1.00;;;;;;;;;;5006419;28;20870;-59
2021/12/25 15:19:00;;;;;;;3.67;1.20;;;;;;;;;;5002754;28;20228;-61
2021/12/25 15:21:25;;;;;;;3.97;1.23;;;;;;;;;;4996706;28;20304;-59
2021/12/25 15:24:07;;;;;;;4.57;1.43;;;;;;;;;;4998483;28;20611;-59
2021/12/25 15:26:37;;;;;;;3.07;1.20;;;;;;;;;;5003857;28;20220;-59
2021/12/25 15:29:03;;;;;;;3.77;1.50;;;;;;;;;;5006861;28;20212;-58